createdAt,value
2023-03-29T00:02:07.986Z,48.69
2023-03-29T00:04:35.627Z,47.91
2023-03-29T00:07:04.899Z,48.32
2023-03-29T00:09:33.490Z,48.24
2023-03-29T00:12:01.237Z,48.18
2023-03-29T00:14:30.768Z,48.23
2023-03-29T00:16:58.910Z,47.51
2023-03-29T00:19:26.604Z,47.46
2023-03-29T00:21:53.955Z,47.53
2023-03-29T00:24:21.551Z,47.68
2023-03-29T00:26:48.868Z,47.57
2023-03-29T00:29:16.758Z,47.77
2023-03-29T00:31:53.791Z,48.49
2023-03-29T00:34:21.914Z,50.33
2023-03-29T00:36:53.150Z,48.32
2023-03-29T00:39:20.783Z,47.00
2023-03-29T00:41:48.874Z,48.13
2023-03-29T00:44:34.809Z,49.99
2023-03-29T00:47:02.070Z,50.53
2023-03-29T00:49:29.600Z,52.28
2023-03-29T00:51:57.244Z,51.45
2023-03-29T00:54:24.984Z,51.16
2023-03-29T00:56:52.527Z,51.10
2023-03-29T00:59:22.461Z,52.47
2023-03-29T01:01:55.184Z,49.41
2023-03-29T01:04:36.534Z,49.93
2023-03-29T01:07:13.658Z,50.94
2023-03-29T01:09:43.592Z,52.82
2023-03-29T01:12:13.615Z,52.73
2023-03-29T01:14:48.095Z,52.65
2023-03-29T01:17:16.158Z,53.42
2023-03-29T01:19:50.242Z,53.46
2023-03-29T01:22:34.134Z,54.83
2023-03-29T01:25:11.248Z,54.82
2023-03-29T01:27:45.230Z,56.72
2023-03-29T01:30:14.769Z,55.13
2023-03-29T01:32:42.114Z,55.45
2023-03-29T01:35:22.840Z,53.12
2023-03-29T01:37:56.915Z,55.77
2023-03-29T01:40:27.271Z,55.67
2023-03-29T01:42:58.672Z,55.90
2023-03-29T01:45:37.032Z,56.57
2023-03-29T01:48:13.448Z,58.05
2023-03-29T01:50:47.838Z,56.45
2023-03-29T01:53:24.243Z,56.10
2023-03-29T01:56:00.537Z,56.00
2023-03-29T01:58:33.660Z,54.17
2023-03-29T02:01:05.840Z,54.03
2023-03-29T02:03:34.750Z,52.06
2023-03-29T02:06:04.933Z,54.40
2023-03-29T02:08:32.252Z,55.27
2023-03-29T02:10:59.622Z,57.46
2023-03-29T02:13:27.424Z,58.33
2023-03-29T02:15:54.851Z,58.17
2023-03-29T02:18:22.226Z,59.56
2023-03-29T02:20:50.872Z,60.85
2023-03-29T02:23:30.498Z,60.69
2023-03-29T02:25:57.841Z,63.61
2023-03-29T02:28:27.089Z,62.98
2023-03-29T02:30:57.153Z,63.50
2023-03-29T02:33:33.468Z,65.01
2023-03-29T02:36:04.650Z,66.91
2023-03-29T02:38:32.802Z,66.75
2023-03-29T02:41:00.972Z,66.93
2023-03-29T02:43:29.158Z,66.93
2023-03-29T02:45:56.626Z,67.18
2023-03-29T02:48:26.852Z,67.92
2023-03-29T02:50:58.441Z,69.37
2023-03-29T02:53:42.436Z,67.55
2023-03-29T02:56:09.983Z,68.36
2023-03-29T02:58:37.561Z,66.28
2023-03-29T03:01:07.012Z,65.24
2023-03-29T03:03:35.762Z,64.97
2023-03-29T03:06:04.795Z,63.01
2023-03-29T03:08:32.537Z,61.66
2023-03-29T03:11:00.274Z,62.25
2023-03-29T03:13:27.996Z,63.05
2023-03-29T03:15:56.201Z,62.10
2023-03-29T03:18:24.209Z,64.34
2023-03-29T03:20:56.212Z,64.63
2023-03-29T03:23:24.973Z,65.81
2023-03-29T03:25:52.900Z,63.70
2023-03-29T03:28:22.201Z,63.47
2023-03-29T03:30:50.178Z,62.58
2023-03-29T03:33:18.837Z,62.60
2023-03-29T03:36:06.410Z,59.14
2023-03-29T03:38:37.933Z,60.10
2023-03-29T03:41:09.638Z,57.25
2023-03-29T03:43:37.585Z,60.63
2023-03-29T03:46:05.459Z,63.23
2023-03-29T03:48:33.427Z,62.43
2023-03-29T03:51:27.381Z,61.44
2023-03-29T03:53:54.942Z,60.71
2023-03-29T03:56:34.456Z,63.28
2023-03-29T03:59:05.717Z,62.86
2023-03-29T04:01:53.701Z,61.90
2023-03-29T04:04:23.618Z,63.93
2023-03-29T04:07:04.892Z,65.25
2023-03-29T04:09:50.946Z,64.47
2023-03-29T04:12:44.733Z,64.35
2023-03-29T04:15:12.340Z,65.94
2023-03-29T04:17:46.072Z,67.14
2023-03-29T04:20:26.205Z,66.00
2023-03-29T04:22:54.118Z,65.78
2023-03-29T04:25:22.402Z,64.93
2023-03-29T04:27:58.962Z,65.52
2023-03-29T04:30:46.579Z,66.31
2023-03-29T04:33:34.567Z,65.41
2023-03-29T04:36:02.354Z,63.29
2023-03-29T04:38:32.079Z,63.97
2023-03-29T04:41:01.304Z,62.56
2023-03-29T04:43:46.710Z,60.98
2023-03-29T04:46:33.365Z,62.29
2023-03-29T04:49:07.115Z,62.99
2023-03-29T04:51:38.195Z,64.05
2023-03-29T04:54:06.993Z,64.22
2023-03-29T04:57:00.372Z,63.53
2023-03-29T04:59:38.870Z,67.05
2023-03-29T05:02:17.126Z,66.08
2023-03-29T05:04:48.113Z,66.96
2023-03-29T05:07:19.206Z,66.14
2023-03-29T05:09:48.081Z,66.83
2023-03-29T05:12:16.143Z,65.73
2023-03-29T05:14:54.018Z,66.09
2023-03-29T05:17:26.837Z,64.23
2023-03-29T05:19:57.229Z,64.60
2023-03-29T05:22:26.728Z,64.08
2023-03-29T05:24:54.336Z,65.60
2023-03-29T05:27:23.034Z,65.00
2023-03-29T05:30:03.747Z,63.00
2023-03-29T05:32:49.920Z,65.64
2023-03-29T05:35:24.451Z,64.15
2023-03-29T05:37:54.002Z,64.40
2023-03-29T05:40:22.887Z,61.88
2023-03-29T05:43:09.206Z,64.75
2023-03-29T05:45:36.948Z,63.98
2023-03-29T05:48:05.459Z,62.46
2023-03-29T05:50:34.648Z,66.08
2023-03-29T05:53:03.661Z,67.94
2023-03-29T05:55:31.174Z,65.04
2023-03-29T05:57:58.591Z,64.66
2023-03-29T06:00:31.973Z,63.28
2023-03-29T06:03:21.288Z,65.11
2023-03-29T06:05:56.868Z,65.99
2023-03-29T06:08:26.206Z,64.79
2023-03-29T06:11:26.390Z,65.64
2023-03-29T06:14:14.109Z,63.34
2023-03-29T06:16:47.441Z,64.35
2023-03-29T06:19:16.725Z,64.24
2023-03-29T06:21:44.553Z,65.72
2023-03-29T06:24:16.356Z,61.00
2023-03-29T06:26:50.484Z,59.83
2023-03-29T06:29:18.517Z,56.43
2023-03-29T06:31:47.228Z,55.88
2023-03-29T06:34:33.256Z,53.43
2023-03-29T06:37:20.231Z,56.58
2023-03-29T06:39:53.967Z,57.56
2023-03-29T06:42:33.019Z,55.14
2023-03-29T06:45:37.087Z,52.89
2023-03-29T06:48:08.896Z,52.12
2023-03-29T06:50:36.337Z,52.35
2023-03-29T06:53:11.669Z,52.18
2023-03-29T06:55:41.494Z,51.75
2023-03-29T06:58:31.735Z,50.53
2023-03-29T07:01:07.133Z,48.16
2023-03-29T07:03:47.420Z,48.90
2023-03-29T07:06:20.447Z,48.45
2023-03-29T07:08:52.481Z,48.12
2023-03-29T07:11:58.703Z,49.52
2023-03-29T07:14:30.165Z,49.84
2023-03-29T07:16:58.866Z,48.87
2023-03-29T07:19:33.313Z,47.42
2023-03-29T07:22:31.881Z,48.06
2023-03-29T07:25:01.542Z,49.25
2023-03-29T07:27:31.612Z,48.71
2023-03-29T07:29:59.410Z,49.22
2023-03-29T07:32:28.162Z,49.28
2023-03-29T07:35:23.334Z,47.48
2023-03-29T07:37:50.849Z,47.51
2023-03-29T07:40:23.521Z,47.53
2023-03-29T07:42:57.257Z,47.98
2023-03-29T07:45:28.659Z,47.19
2023-03-29T07:48:00.819Z,47.98
2023-03-29T07:50:37.984Z,45.96
2023-03-29T07:53:05.647Z,46.81
2023-03-29T07:55:34.049Z,45.83
2023-03-29T07:58:26.666Z,46.37
2023-03-29T08:00:54.309Z,45.66
2023-03-29T08:03:44.450Z,44.54
2023-03-29T08:06:12.369Z,44.93
2023-03-29T08:08:39.838Z,43.96
2023-03-29T08:11:12.056Z,43.56
2023-03-29T08:13:59.976Z,43.67
2023-03-29T08:16:27.573Z,43.07
2023-03-29T08:19:04.430Z,42.96
2023-03-29T08:21:52.172Z,41.17
2023-03-29T08:24:22.297Z,40.63
2023-03-29T08:26:55.525Z,40.33
2023-03-29T08:29:25.245Z,41.44
2023-03-29T08:31:52.832Z,41.39
2023-03-29T08:34:20.277Z,40.96
2023-03-29T08:37:04.173Z,40.66
2023-03-29T08:39:45.981Z,39.49
2023-03-29T08:43:06.384Z,39.43
2023-03-29T08:46:09.005Z,39.34
2023-03-29T08:48:46.009Z,39.62
2023-03-29T08:51:24.614Z,39.92
2023-03-29T08:54:11.478Z,38.71
2023-03-29T08:57:17.389Z,38.24
2023-03-29T08:59:52.824Z,39.16
2023-03-29T09:02:27.909Z,39.75
2023-03-29T09:05:21.037Z,39.52
2023-03-29T09:07:58.073Z,39.11
2023-03-29T09:10:34.271Z,39.29
2023-03-29T09:13:51.481Z,38.87
2023-03-29T09:16:34.852Z,38.25
2023-03-29T09:19:06.341Z,37.72
2023-03-29T09:21:42.277Z,38.41
2023-03-29T09:24:17.246Z,39.77
2023-03-29T09:27:10.660Z,39.60
2023-03-29T09:30:08.228Z,39.20
2023-03-29T09:32:56.846Z,39.45
2023-03-29T09:35:39.264Z,39.03
2023-03-29T09:38:12.522Z,39.24
2023-03-29T09:40:51.699Z,40.45
2023-03-29T09:43:52.731Z,39.46
2023-03-29T09:46:41.964Z,40.40
2023-03-29T09:49:17.509Z,39.69
2023-03-29T09:51:48.159Z,39.77
2023-03-29T09:54:17.062Z,38.63
2023-03-29T09:57:03.489Z,38.43
2023-03-29T09:59:31.371Z,37.31
2023-03-29T10:02:10.310Z,39.10
2023-03-29T10:04:38.627Z,40.64
2023-03-29T10:07:07.793Z,39.77
2023-03-29T10:09:35.856Z,39.27
2023-03-29T10:12:16.892Z,40.00
2023-03-29T10:14:54.234Z,39.93
2023-03-29T10:17:24.966Z,39.62
2023-03-29T10:19:57.172Z,39.51
2023-03-29T10:22:35.043Z,38.71
2023-03-29T10:25:02.644Z,39.85
2023-03-29T10:27:34.712Z,39.13
2023-03-29T10:30:12.889Z,39.69
2023-03-29T10:32:41.431Z,39.44
2023-03-29T10:35:33.905Z,38.79
2023-03-29T10:38:07.595Z,39.90
2023-03-29T10:40:41.481Z,40.21
2023-03-29T10:43:14.582Z,39.63
2023-03-29T10:45:42.533Z,39.39
2023-03-29T10:48:15.520Z,40.42
2023-03-29T10:50:48.747Z,39.93
2023-03-29T10:53:20.354Z,39.28
2023-03-29T10:56:00.995Z,40.67
2023-03-29T10:58:51.859Z,41.61
2023-03-29T11:01:57.961Z,40.96
2023-03-29T11:05:01.976Z,40.24
2023-03-29T11:07:38.908Z,40.21
2023-03-29T11:10:26.092Z,41.67
2023-03-29T11:12:59.565Z,40.84
2023-03-29T11:15:51.953Z,41.10
2023-03-29T11:18:25.394Z,42.06
2023-03-29T11:21:17.868Z,42.09
2023-03-29T11:24:01.490Z,42.86
2023-03-29T11:26:50.028Z,42.46
2023-03-29T11:29:40.663Z,42.62
2023-03-29T11:32:42.410Z,43.54
2023-03-29T11:35:31.842Z,44.40
2023-03-29T11:38:18.097Z,44.15
2023-03-29T11:41:09.324Z,44.27
2023-03-29T11:43:55.266Z,43.51
2023-03-29T11:46:32.273Z,43.36
2023-03-29T11:49:21.568Z,44.49
2023-03-29T11:52:14.288Z,43.83
2023-03-29T11:55:14.996Z,43.95
2023-03-29T11:57:45.603Z,43.52
2023-03-29T12:00:15.780Z,44.09
2023-03-29T12:02:59.659Z,42.89
2023-03-29T12:05:32.913Z,43.20
2023-03-29T12:08:06.774Z,42.15
2023-03-29T12:10:37.051Z,42.04
2023-03-29T12:13:24.025Z,41.95
2023-03-29T12:16:02.412Z,41.17
2023-03-29T12:18:57.966Z,41.47
2023-03-29T12:21:28.880Z,40.61
2023-03-29T12:23:58.240Z,39.57
2023-03-29T12:27:03.031Z,40.32
2023-03-29T12:29:48.798Z,39.35
2023-03-29T12:32:31.411Z,39.19
2023-03-29T12:35:44.299Z,40.26
2023-03-29T12:38:32.013Z,40.72
2023-03-29T12:41:24.484Z,40.38
2023-03-29T12:44:15.381Z,39.74
2023-03-29T12:47:03.321Z,39.65
2023-03-29T12:49:37.703Z,39.63
2023-03-29T12:52:26.995Z,40.07
2023-03-29T12:54:57.580Z,40.10
2023-03-29T12:58:00.518Z,40.26
2023-03-29T13:00:42.794Z,40.95
2023-03-29T13:03:34.791Z,39.91
2023-03-29T13:06:05.576Z,38.95
2023-03-29T13:08:37.114Z,39.19
2023-03-29T13:11:06.937Z,38.39
2023-03-29T13:13:40.410Z,37.73
2023-03-29T13:16:15.711Z,38.98
2023-03-29T13:19:19.558Z,39.69
2023-03-29T13:22:10.051Z,39.68
2023-03-29T13:25:25.360Z,40.12
2023-03-29T13:28:11.450Z,40.66
2023-03-29T13:30:57.637Z,40.37
2023-03-29T13:33:31.607Z,40.74
2023-03-29T13:36:21.248Z,40.08
2023-03-29T13:38:52.435Z,39.92
2023-03-29T13:41:32.586Z,39.63
2023-03-29T13:44:00.434Z,38.78
2023-03-29T13:46:42.518Z,38.87
2023-03-29T13:49:28.522Z,39.48
2023-03-29T13:52:16.763Z,39.44
2023-03-29T13:54:57.579Z,39.31
2023-03-29T13:57:37.648Z,39.65
2023-03-29T14:00:23.579Z,38.47
2023-03-29T14:02:55.903Z,38.35
2023-03-29T14:05:32.990Z,38.75
2023-03-29T14:08:32.010Z,39.31
2023-03-29T14:11:03.230Z,38.78
2023-03-29T14:13:31.208Z,38.26
2023-03-29T14:16:06.943Z,37.38
2023-03-29T14:18:37.202Z,37.76
2023-03-29T14:21:04.998Z,37.37
2023-03-29T14:23:36.552Z,37.53
2023-03-29T14:26:08.358Z,36.84
2023-03-29T14:28:49.201Z,37.98
2023-03-29T14:31:33.323Z,38.50
2023-03-29T14:34:03.182Z,37.46
2023-03-29T14:36:33.378Z,36.70
2023-03-29T14:39:07.981Z,36.59
2023-03-29T14:41:37.510Z,36.23
2023-03-29T14:44:07.830Z,36.50
2023-03-29T14:46:36.828Z,37.05
2023-03-29T14:49:06.309Z,36.85
2023-03-29T14:51:34.382Z,37.50
2023-03-29T14:54:03.989Z,36.69
2023-03-29T14:56:33.207Z,37.30
2023-03-29T14:59:04.975Z,37.82
2023-03-29T15:01:33.406Z,38.44
2023-03-29T15:04:10.381Z,36.83
2023-03-29T15:06:44.129Z,36.92
2023-03-29T15:09:19.249Z,36.69
2023-03-29T15:11:55.006Z,38.32
2023-03-29T15:14:25.448Z,39.24
2023-03-29T15:17:03.930Z,39.11
2023-03-29T15:19:32.364Z,39.64
2023-03-29T15:22:10.104Z,40.11
2023-03-29T15:24:45.009Z,40.11
2023-03-29T15:27:18.196Z,40.49
2023-03-29T15:29:47.536Z,41.38
2023-03-29T15:32:23.467Z,41.10
2023-03-29T15:35:03.055Z,42.26
2023-03-29T15:37:31.444Z,40.80
2023-03-29T15:39:59.103Z,40.50
2023-03-29T15:42:26.746Z,41.01
2023-03-29T15:44:56.457Z,41.06
2023-03-29T15:47:24.277Z,41.36
2023-03-29T15:49:51.880Z,41.72
2023-03-29T15:52:19.496Z,42.48
2023-03-29T15:54:46.965Z,43.10
2023-03-29T15:57:16.311Z,43.25
2023-03-29T15:59:44.545Z,42.69
2023-03-29T16:02:16.612Z,43.13
2023-03-29T16:04:44.182Z,43.40
2023-03-29T16:07:17.344Z,44.12
2023-03-29T16:09:46.223Z,43.68
2023-03-29T16:12:16.217Z,43.79
2023-03-29T16:14:43.837Z,43.89
2023-03-29T16:17:11.581Z,43.25
2023-03-29T16:19:39.068Z,44.32
2023-03-29T16:22:07.618Z,45.03
2023-03-29T16:24:36.374Z,45.47
2023-03-29T16:27:04.462Z,45.72
2023-03-29T16:29:32.072Z,45.85
2023-03-29T16:31:59.702Z,46.41
2023-03-29T16:34:27.333Z,45.16
2023-03-29T16:36:55.097Z,45.18
2023-03-29T16:39:22.590Z,46.19
2023-03-29T16:41:50.300Z,46.45
2023-03-29T16:44:22.946Z,47.21
2023-03-29T16:46:54.401Z,46.57
2023-03-29T16:49:22.472Z,47.32
2023-03-29T16:51:50.561Z,47.53
2023-03-29T16:54:18.996Z,47.65
2023-03-29T16:56:47.037Z,48.45
2023-03-29T16:59:15.333Z,48.01
2023-03-29T17:01:42.933Z,48.04
2023-03-29T17:04:10.808Z,48.63
2023-03-29T17:06:38.370Z,49.24
2023-03-29T17:09:06.238Z,49.15
2023-03-29T17:11:34.674Z,49.54
2023-03-29T17:14:02.325Z,50.10
2023-03-29T17:16:29.869Z,49.38
2023-03-29T17:19:00.611Z,50.27
2023-03-29T17:21:29.654Z,50.36
2023-03-29T17:23:57.294Z,51.23
2023-03-29T17:26:24.834Z,52.66
2023-03-29T17:28:52.264Z,52.07
2023-03-29T17:31:19.925Z,53.80
2023-03-29T17:33:47.659Z,54.18
2023-03-29T17:36:15.793Z,53.83
2023-03-29T17:38:43.334Z,54.49
2023-03-29T17:41:11.095Z,54.60
2023-03-29T17:43:38.604Z,54.14
2023-03-29T17:46:06.585Z,54.63
2023-03-29T17:48:34.466Z,55.94
2023-03-29T17:51:02.258Z,56.69
2023-03-29T17:53:29.918Z,56.64
2023-03-29T17:55:57.488Z,57.63
2023-03-29T17:58:24.960Z,59.01
2023-03-29T18:00:52.541Z,60.91
2023-03-29T18:03:20.078Z,61.38
2023-03-29T18:05:48.186Z,62.37
2023-03-29T18:08:16.885Z,62.24
2023-03-29T18:10:44.424Z,62.51
2023-03-29T18:13:14.019Z,62.77
2023-03-29T18:15:42.296Z,64.10
2023-03-29T18:18:09.795Z,65.93
2023-03-29T18:20:37.468Z,65.50
2023-03-29T18:23:04.930Z,67.30
2023-03-29T18:25:32.463Z,68.40
2023-03-29T18:27:59.941Z,68.38
2023-03-29T18:30:27.574Z,69.36
2023-03-29T18:32:55.148Z,70.34
2023-03-29T18:35:22.782Z,70.87
2023-03-29T18:37:51.593Z,70.10
2023-03-29T18:40:24.868Z,71.37
2023-03-29T18:42:52.584Z,71.37
2023-03-29T18:45:22.254Z,73.59
2023-03-29T18:47:50.653Z,73.13
2023-03-29T18:50:18.468Z,73.35
2023-03-29T18:52:46.058Z,73.68
2023-03-29T18:55:13.534Z,72.95
2023-03-29T18:57:41.757Z,73.17
2023-03-29T19:00:11.964Z,73.73
2023-03-29T19:02:40.762Z,73.58
2023-03-29T19:05:09.376Z,73.29
2023-03-29T19:07:37.535Z,74.71
2023-03-29T19:10:06.704Z,74.24
2023-03-29T19:12:34.280Z,75.27
2023-03-29T19:15:02.832Z,74.67
2023-03-29T19:17:30.938Z,75.14
2023-03-29T19:19:59.026Z,75.48
2023-03-29T19:22:26.657Z,75.43
2023-03-29T19:24:54.403Z,75.63
2023-03-29T19:27:22.178Z,75.00
2023-03-29T19:29:50.097Z,76.33
2023-03-29T19:32:17.919Z,76.27
2023-03-29T19:34:45.422Z,77.26
2023-03-29T19:37:12.892Z,77.97
2023-03-29T19:39:41.514Z,77.71
2023-03-29T19:42:09.255Z,78.05
2023-03-29T19:44:38.372Z,78.00
2023-03-29T19:47:06.127Z,76.67
2023-03-29T19:49:37.041Z,78.11
2023-03-29T19:52:06.315Z,76.42
2023-03-29T19:54:34.061Z,76.20
2023-03-29T19:57:01.910Z,74.85
2023-03-29T19:59:31.152Z,74.94
2023-03-29T20:01:59.343Z,75.49
2023-03-29T20:04:28.830Z,75.09
2023-03-29T20:06:57.750Z,73.69
2023-03-29T20:09:25.275Z,73.39
2023-03-29T20:11:52.913Z,75.11
2023-03-29T20:14:20.728Z,72.61
2023-03-29T20:16:52.461Z,71.89
2023-03-29T20:19:26.934Z,71.48
2023-03-29T20:21:58.942Z,70.81
2023-03-29T20:24:26.625Z,71.29
2023-03-29T20:26:54.126Z,72.51
2023-03-29T20:29:21.752Z,73.37
2023-03-29T20:31:49.303Z,74.19
2023-03-29T20:34:18.190Z,71.93
2023-03-29T20:36:47.035Z,73.17
2023-03-29T20:39:17.839Z,72.03
2023-03-29T20:41:47.935Z,72.41
2023-03-29T20:44:17.061Z,72.97
2023-03-29T20:47:08.357Z,73.69
2023-03-29T20:49:39.530Z,73.64
2023-03-29T20:52:15.530Z,73.50
2023-03-29T20:54:44.476Z,74.37
2023-03-29T20:57:17.170Z,75.01
2023-03-29T20:59:45.787Z,74.52
2023-03-29T21:02:19.187Z,74.81
2023-03-29T21:04:53.775Z,74.75
2023-03-29T21:07:21.952Z,75.47
2023-03-29T21:09:50.349Z,75.70
2023-03-29T21:12:17.922Z,75.87
2023-03-29T21:14:47.367Z,76.19
2023-03-29T21:17:15.350Z,75.61
2023-03-29T21:19:42.849Z,77.25
2023-03-29T21:22:13.819Z,76.94
2023-03-29T21:24:41.442Z,76.10
2023-03-29T21:27:09.130Z,76.28
2023-03-29T21:29:36.649Z,75.71
2023-03-29T21:32:04.674Z,75.49
2023-03-29T21:34:32.190Z,76.20
2023-03-29T21:36:59.717Z,76.64
2023-03-29T21:39:27.646Z,76.78
2023-03-29T21:41:55.200Z,77.67
2023-03-29T21:44:22.697Z,77.36
2023-03-29T21:46:50.197Z,78.23
2023-03-29T21:49:17.949Z,77.32
2023-03-29T21:51:46.515Z,78.02
2023-03-29T21:54:14.055Z,79.01
2023-03-29T21:56:41.625Z,79.16
2023-03-29T21:59:09.023Z,78.91
2023-03-29T22:01:36.574Z,80.04
2023-03-29T22:04:04.328Z,80.59
2023-03-29T22:06:32.003Z,79.44
2023-03-29T22:09:00.753Z,78.79
2023-03-29T22:11:31.099Z,79.67
2023-03-29T22:13:58.639Z,79.98
2023-03-29T22:16:28.115Z,79.16
2023-03-29T22:18:55.818Z,79.54
2023-03-29T22:21:26.527Z,80.43
2023-03-29T22:23:59.368Z,79.03
2023-03-29T22:26:31.949Z,78.44
2023-03-29T22:29:00.828Z,78.76
2023-03-29T22:31:29.795Z,79.33
2023-03-29T22:33:58.656Z,80.62
2023-03-29T22:36:28.693Z,80.14
2023-03-29T22:38:56.312Z,79.48
2023-03-29T22:41:26.127Z,78.85
2023-03-29T22:43:56.136Z,77.65
2023-03-29T22:46:24.794Z,77.90
2023-03-29T22:48:53.151Z,78.31
2023-03-29T22:51:21.296Z,79.83
2023-03-29T22:53:48.721Z,78.48
2023-03-29T22:56:16.902Z,79.45
2023-03-29T22:58:44.787Z,78.52
2023-03-29T23:01:12.778Z,80.22
2023-03-29T23:03:40.528Z,79.43
2023-03-29T23:06:08.046Z,79.01
2023-03-29T23:08:36.313Z,78.50
2023-03-29T23:11:04.610Z,78.84
2023-03-29T23:13:33.752Z,79.19
2023-03-29T23:16:03.592Z,80.01
2023-03-29T23:18:34.950Z,79.74
2023-03-29T23:21:05.609Z,79.48
2023-03-29T23:23:33.835Z,78.98
2023-03-29T23:26:02.055Z,79.20
2023-03-29T23:28:34.584Z,79.71
2023-03-29T23:31:05.814Z,80.11
2023-03-29T23:33:35.678Z,79.83
2023-03-29T23:36:05.838Z,79.96
2023-03-29T23:38:35.142Z,79.16
2023-03-29T23:41:06.307Z,79.40
2023-03-29T23:43:37.320Z,79.97
2023-03-29T23:46:11.346Z,80.65
2023-03-29T23:48:39.450Z,81.20
2023-03-29T23:51:08.360Z,79.59
2023-03-29T23:53:36.847Z,81.74
2023-03-29T23:56:06.007Z,81.39
2023-03-29T23:58:37.549Z,80.62
